createdAt,value
2023-04-04T00:01:53.441Z,16.12
2023-04-04T00:11:55.228Z,15.92
2023-04-04T00:21:56.813Z,15.79
2023-04-04T00:31:58.324Z,15.66
2023-04-04T00:41:59.773Z,15.53
2023-04-04T00:52:01.175Z,15.45
2023-04-04T01:02:02.563Z,15.34
2023-04-04T01:12:03.979Z,15.25
2023-04-04T01:22:05.386Z,15.16
2023-04-04T01:32:11.426Z,15.06
2023-04-04T01:42:13.240Z,15.03
2023-04-04T01:52:14.808Z,15.04
2023-04-04T02:02:16.211Z,15.21
2023-04-04T02:12:17.652Z,15.44
2023-04-04T02:22:19.068Z,15.64
2023-04-04T02:32:21.450Z,15.80
2023-04-04T02:42:22.875Z,15.91
2023-04-04T02:52:24.416Z,16.03
2023-04-04T03:02:26.247Z,16.15
2023-04-04T03:12:28.096Z,16.10
2023-04-04T03:22:29.512Z,16.02
2023-04-04T03:32:31.448Z,15.89
2023-04-04T03:42:34.507Z,15.59
2023-04-04T03:52:39.938Z,15.41
2023-04-04T04:02:41.448Z,15.25
2023-04-04T04:12:43.057Z,15.52
2023-04-04T04:22:47.527Z,15.73
2023-04-04T04:32:49.593Z,15.91
2023-04-04T04:42:51.994Z,16.11
2023-04-04T04:52:54.630Z,16.21
2023-04-04T05:02:56.680Z,16.26
2023-04-04T05:12:58.208Z,16.23
2023-04-04T05:22:59.634Z,16.18
2023-04-04T05:33:01.267Z,16.13
2023-04-04T05:43:04.420Z,16.22
2023-04-04T05:53:06.071Z,16.38
2023-04-04T06:03:07.793Z,16.48
2023-04-04T06:13:09.254Z,16.57
2023-04-04T06:23:10.870Z,16.72
2023-04-04T06:33:12.317Z,17.09
2023-04-04T06:43:13.804Z,17.52
2023-04-04T06:53:15.230Z,17.76
2023-04-04T07:03:16.804Z,17.84
2023-04-04T07:13:18.301Z,18.22
2023-04-04T07:23:19.737Z,18.56
2023-04-04T07:33:21.176Z,18.69
2023-04-04T07:43:22.842Z,19.20
2023-04-04T07:53:24.264Z,19.54
2023-04-04T08:03:26.327Z,19.95
2023-04-04T08:13:27.964Z,20.20
2023-04-04T08:23:30.660Z,20.42
2023-04-04T08:33:44.612Z,20.62
2023-04-04T08:43:54.319Z,20.85
2023-04-04T08:53:55.735Z,21.39
2023-04-04T09:03:57.308Z,22.03
2023-04-04T09:13:58.766Z,23.91
2023-04-04T09:24:03.408Z,26.80
2023-04-04T09:34:04.997Z,26.78
2023-04-04T09:44:07.182Z,25.09
2023-04-04T09:54:18.604Z,24.66
2023-04-04T10:04:26.862Z,24.13
2023-04-04T10:14:35.047Z,21.96
2023-04-04T10:24:36.565Z,21.15
2023-04-04T10:35:02.758Z,20.81
2023-04-04T10:45:19.260Z,20.60
2023-04-04T10:55:22.429Z,20.40
2023-04-04T11:05:27.200Z,20.25
2023-04-04T11:15:28.649Z,20.09
2023-04-04T11:25:37.439Z,19.93
2023-04-04T11:35:40.435Z,19.78
2023-04-04T11:45:45.103Z,19.64
2023-04-04T11:55:49.380Z,19.51
2023-04-04T12:05:51.358Z,19.39
2023-04-04T12:15:52.821Z,19.28
2023-04-04T12:25:55.846Z,19.11
2023-04-04T12:35:57.298Z,18.97
2023-04-04T12:45:58.764Z,18.84
2023-04-04T12:56:04.599Z,18.68
2023-04-04T13:06:15.611Z,18.56
2023-04-04T13:16:36.879Z,18.45
2023-04-04T13:26:38.326Z,18.36
2023-04-04T13:36:39.829Z,18.28
2023-04-04T13:46:42.346Z,18.18
2023-04-04T13:56:43.894Z,18.10
2023-04-04T14:06:47.154Z,18.05
2023-04-04T14:16:48.649Z,18.01
2023-04-04T14:26:50.273Z,18.02
2023-04-04T14:36:51.691Z,17.92
2023-04-04T14:46:53.145Z,17.82
2023-04-04T14:56:54.591Z,17.73
2023-04-04T15:07:00.727Z,17.71
2023-04-04T15:17:02.123Z,17.65
2023-04-04T15:27:03.576Z,17.56
2023-04-04T15:37:05.036Z,17.50
2023-04-04T15:47:06.634Z,17.44
2023-04-04T15:57:08.044Z,17.38
2023-04-04T16:07:09.885Z,17.35
2023-04-04T16:17:11.551Z,17.30
2023-04-04T16:27:13.178Z,17.23
2023-04-04T16:37:16.310Z,17.18
2023-04-04T16:47:17.902Z,17.16
2023-04-04T16:57:19.310Z,17.09
2023-04-04T17:07:21.025Z,17.00
2023-04-04T17:17:22.713Z,16.95
2023-04-04T17:27:24.288Z,16.86
2023-04-04T17:37:26.087Z,16.76
2023-04-04T17:47:27.754Z,16.70
2023-04-04T17:57:29.448Z,16.62
2023-04-04T18:07:30.888Z,16.53
2023-04-04T18:17:33.182Z,16.45
2023-04-04T18:27:34.956Z,16.36
2023-04-04T18:37:37.342Z,16.31
2023-04-04T18:47:40.019Z,16.27
2023-04-04T18:57:41.645Z,16.19
2023-04-04T19:07:43.120Z,16.19
2023-04-04T19:17:44.728Z,16.12
2023-04-04T19:27:46.295Z,16.10
2023-04-04T19:37:47.696Z,16.04
2023-04-04T19:47:49.313Z,16.00
2023-04-04T19:57:51.004Z,15.96
2023-04-04T20:07:52.410Z,15.91
2023-04-04T20:17:54.008Z,15.92
2023-04-04T20:27:55.748Z,15.92
2023-04-04T20:37:57.173Z,15.87
2023-04-04T20:48:00.497Z,15.82
2023-04-04T20:58:07.642Z,15.80
2023-04-04T21:08:24.244Z,15.74
2023-04-04T21:18:27.661Z,15.68
2023-04-04T21:28:33.912Z,15.65
2023-04-04T21:38:35.322Z,15.61
2023-04-04T21:48:36.750Z,15.56
2023-04-04T21:58:38.149Z,15.53
2023-04-04T22:08:40.297Z,15.47
2023-04-04T22:18:43.221Z,15.45
2023-04-04T22:28:48.245Z,15.33
2023-04-04T22:38:56.218Z,15.32
2023-04-04T22:49:07.116Z,15.26
2023-04-04T22:59:08.891Z,15.22
2023-04-04T23:09:10.359Z,15.17
2023-04-04T23:19:12.944Z,15.14
2023-04-04T23:29:14.438Z,15.02
2023-04-04T23:39:15.913Z,15.29
2023-04-04T23:49:17.344Z,15.59
2023-04-04T23:59:18.789Z,15.85
